Time;durP1;ratioP1;P1;durP2;ratioP2;P2;SDS_P1;SDS_P2;PMS_P1;PMS_P2;Temp;Humidity;BMP_temperature;BMP_pressure;BME280_temperature;BME280_humidity;BME280_pressure;Samples;Min_cycle;Max_cycle;Signal;HPM_P1;HPM_P2
2022/07/01 00:01:59;;;;;;;28.67;8.30;;;;;;;;;;3358242;42;20143;-60
2022/07/01 00:04:27;;;;;;;29.50;8.27;;;;;;;;;;3359682;42;20147;-60
2022/07/01 00:06:55;;;;;;;19.88;4.82;;;;;;;;;;3353632;42;20597;-60
2022/07/01 00:09:22;;;;;;;14.53;3.67;;;;;;;;;;3359307;42;20122;-59
2022/07/01 00:11:48;;;;;;;15.32;4.35;;;;;;;;;;3360533;42;20102;-60
2022/07/01 00:14:14;;;;;;;15.80;3.20;;;;;;;;;;3359846;42;20092;-59
2022/07/01 00:16:40;;;;;;;11.15;3.17;;;;;;;;;;3358979;42;20088;-59
2022/07/01 00:19:06;;;;;;;8.15;2.88;;;;;;;;;;3358141;42;20218;-59
2022/07/01 00:21:32;;;;;;;6.60;2.40;;;;;;;;;;3357885;42;20162;-60
2022/07/01 00:23:58;;;;;;;6.47;2.00;;;;;;;;;;3358193;42;20214;-60
2022/07/01 00:26:24;;;;;;;7.45;2.38;;;;;;;;;;3357842;42;20103;-60
2022/07/01 00:28:50;;;;;;;8.65;2.00;;;;;;;;;;3358187;42;20719;-60
2022/07/01 00:31:16;;;;;;;5.57;1.70;;;;;;;;;;3358090;42;20077;-63
2022/07/01 00:33:42;;;;;;;6.53;2.05;;;;;;;;;;3358044;42;20095;-59
2022/07/01 00:36:08;;;;;;;6.10;1.90;;;;;;;;;;3357756;42;20167;-61
2022/07/01 00:38:34;;;;;;;7.65;2.13;;;;;;;;;;3358089;42;20096;-59
2022/07/01 00:41:00;;;;;;;7.27;1.90;;;;;;;;;;3358262;42;20766;-59
2022/07/01 00:43:26;;;;;;;6.30;1.73;;;;;;;;;;3358073;42;20183;-61
2022/07/01 00:45:52;;;;;;;6.22;1.80;;;;;;;;;;3358038;42;20614;-62
2022/07/01 00:48:21;;;;;;;7.60;2.10;;;;;;;;;;3349187;42;20107;-59
2022/07/01 00:50:47;;;;;;;7.87;2.17;;;;;;;;;;3356214;42;20100;-61
2022/07/01 00:53:14;;;;;;;7.07;2.10;;;;;;;;;;3356880;42;20110;-59
2022/07/01 00:55:41;;;;;;;8.07;2.38;;;;;;;;;;3356465;42;20095;-60
2022/07/01 00:58:08;;;;;;;7.50;2.35;;;;;;;;;;3356679;42;20155;-58
2022/07/01 01:00:34;;;;;;;6.43;2.22;;;;;;;;;;3357292;42;20084;-60
2022/07/01 01:03:00;;;;;;;8.47;2.50;;;;;;;;;;3356163;42;20095;-59
2022/07/01 01:05:26;;;;;;;8.45;2.63;;;;;;;;;;3357676;42;20080;-58
2022/07/01 01:07:51;;;;;;;8.98;2.88;;;;;;;;;;3357730;42;20131;-59
2022/07/01 01:10:18;;;;;;;6.90;2.70;;;;;;;;;;3356335;42;20571;-59
2022/07/01 01:12:44;;;;;;;9.57;2.80;;;;;;;;;;3357555;42;20119;-60
2022/07/01 01:15:10;;;;;;;8.30;2.63;;;;;;;;;;3357937;42;20216;-59
2022/07/01 01:17:37;;;;;;;8.60;2.35;;;;;;;;;;3357495;42;20712;-59
2022/07/01 01:20:03;;;;;;;8.25;2.40;;;;;;;;;;3357559;42;20096;-59
2022/07/01 01:22:29;;;;;;;8.43;2.93;;;;;;;;;;3357637;42;20144;-59
2022/07/01 01:24:55;;;;;;;10.65;3.20;;;;;;;;;;3357583;42;20076;-63
2022/07/01 01:27:21;;;;;;;9.75;3.03;;;;;;;;;;3357590;42;20095;-61
2022/07/01 01:29:47;;;;;;;8.57;2.93;;;;;;;;;;3356217;42;20092;-59
2022/07/01 01:32:13;;;;;;;8.43;2.70;;;;;;;;;;3357377;42;20566;-63
2022/07/01 01:34:42;;;;;;;8.73;2.75;;;;;;;;;;3357569;42;20183;-59
2022/07/01 01:37:08;;;;;;;7.20;2.22;;;;;;;;;;3357623;42;20143;-60
2022/07/01 01:39:36;;;;;;;6.43;2.20;;;;;;;;;;3357372;42;20495;-59
2022/07/01 01:42:05;;;;;;;5.78;2.00;;;;;;;;;;3357629;42;20612;-62
2022/07/01 01:44:31;;;;;;;6.50;2.22;;;;;;;;;;3357486;42;20800;-61
2022/07/01 01:46:57;;;;;;;8.43;2.00;;;;;;;;;;3357456;42;20576;-59
2022/07/01 01:49:23;;;;;;;6.70;2.15;;;;;;;;;;3357483;42;20617;-61
2022/07/01 01:51:49;;;;;;;5.80;2.10;;;;;;;;;;3355801;42;20104;-60
2022/07/01 01:54:14;;;;;;;7.22;2.00;;;;;;;;;;3357339;42;20085;-62
2022/07/01 01:56:40;;;;;;;6.28;2.08;;;;;;;;;;3357317;42;20555;-62
2022/07/01 01:59:06;;;;;;;6.53;2.00;;;;;;;;;;3357283;42;20602;-61
2022/07/01 02:01:32;;;;;;;6.55;2.03;;;;;;;;;;3356130;42;20080;-58
2022/07/01 02:03:58;;;;;;;7.13;2.30;;;;;;;;;;3357303;42;20626;-59
2022/07/01 02:06:24;;;;;;;6.43;2.05;;;;;;;;;;3355953;42;20135;-61
2022/07/01 02:08:50;;;;;;;6.17;1.80;;;;;;;;;;3357560;42;20103;-60
2022/07/01 02:11:17;;;;;;;5.93;1.90;;;;;;;;;;3356128;42;20096;-61
2022/07/01 02:13:44;;;;;;;7.75;2.10;;;;;;;;;;3356019;42;20092;-60
2022/07/01 02:16:10;;;;;;;5.88;2.20;;;;;;;;;;3357450;42;20292;-61
2022/07/01 02:18:36;;;;;;;6.70;2.20;;;;;;;;;;3357588;42;20073;-61
2022/07/01 02:21:02;;;;;;;7.60;2.17;;;;;;;;;;3358153;42;20093;-61
2022/07/01 02:23:29;;;;;;;6.00;2.08;;;;;;;;;;3358347;42;20101;-60
2022/07/01 02:25:55;;;;;;;5.95;2.30;;;;;;;;;;3357531;42;20088;-62
2022/07/01 02:28:21;;;;;;;6.40;2.22;;;;;;;;;;3355732;42;20573;-60
2022/07/01 02:30:47;;;;;;;10.17;2.30;;;;;;;;;;3358432;42;20595;-60
2022/07/01 02:33:13;;;;;;;7.65;2.40;;;;;;;;;;3359309;42;20088;-62
2022/07/01 02:35:39;;;;;;;9.25;3.22;;;;;;;;;;3359765;42;20136;-61
2022/07/01 02:38:06;;;;;;;12.57;3.67;;;;;;;;;;3359044;42;20092;-60
2022/07/01 02:40:33;;;;;;;9.90;3.20;;;;;;;;;;3358588;42;20096;-63
2022/07/01 02:43:00;;;;;;;12.30;3.45;;;;;;;;;;3358704;42;20127;-60
2022/07/01 02:45:26;;;;;;;13.48;3.97;;;;;;;;;;3358950;42;20107;-60
2022/07/01 02:47:52;;;;;;;14.90;4.25;;;;;;;;;;3358853;42;20080;-61
2022/07/01 02:50:18;;;;;;;13.75;4.00;;;;;;;;;;3358480;42;20092;-59
2022/07/01 02:52:44;;;;;;;13.27;3.70;;;;;;;;;;3358561;42;20124;-59
2022/07/01 02:55:11;;;;;;;11.13;2.97;;;;;;;;;;3358597;42;20080;-59
2022/07/01 02:57:37;;;;;;;9.85;3.08;;;;;;;;;;3358669;42;20159;-60
2022/07/01 03:00:05;;;;;;;10.75;3.05;;;;;;;;;;3358540;42;20131;-59
2022/07/01 03:02:32;;;;;;;11.90;3.15;;;;;;;;;;3357461;42;20167;-60
2022/07/01 03:04:58;;;;;;;11.97;3.50;;;;;;;;;;3359023;42;20104;-61
2022/07/01 03:07:24;;;;;;;11.70;2.80;;;;;;;;;;3358826;42;20096;-60
2022/07/01 03:09:50;;;;;;;11.05;3.03;;;;;;;;;;3357457;42;20103;-62
2022/07/01 03:12:25;;;;;;;11.70;2.70;;;;;;;;;;3358298;42;20177;-60
2022/07/01 03:14:57;;;;;;;11.93;3.17;;;;;;;;;;3358844;42;20671;-59
2022/07/01 03:17:24;;;;;;;10.48;2.88;;;;;;;;;;3358611;42;20223;-59
2022/07/01 03:19:51;;;;;;;20.02;3.53;;;;;;;;;;3358199;42;20602;-59
2022/07/01 03:22:17;;;;;;;13.07;3.42;;;;;;;;;;3359520;42;20084;-58
2022/07/01 03:24:43;;;;;;;10.27;3.50;;;;;;;;;;3360095;42;20131;-59
2022/07/01 03:27:09;;;;;;;11.27;3.70;;;;;;;;;;3356778;42;20084;-58
2022/07/01 03:29:36;;;;;;;12.82;3.40;;;;;;;;;;3359044;42;20092;-59
2022/07/01 03:32:02;;;;;;;10.65;3.28;;;;;;;;;;3358829;42;20088;-56
2022/07/01 03:34:28;;;;;;;8.20;2.97;;;;;;;;;;3359094;42;20107;-58
2022/07/01 03:36:54;;;;;;;8.57;2.90;;;;;;;;;;3359039;42;20088;-59
2022/07/01 03:39:20;;;;;;;9.70;2.80;;;;;;;;;;3358751;42;20084;-59
2022/07/01 03:41:46;;;;;;;9.48;3.17;;;;;;;;;;3358684;42;20200;-55
2022/07/01 03:44:12;;;;;;;7.68;3.00;;;;;;;;;;3358591;42;20088;-56
2022/07/01 03:46:38;;;;;;;6.78;2.63;;;;;;;;;;3358134;42;20081;-59
2022/07/01 03:49:04;;;;;;;7.43;2.47;;;;;;;;;;3357774;42;20468;-57
2022/07/01 03:51:30;;;;;;;10.82;2.88;;;;;;;;;;3359334;42;20106;-57
2022/07/01 03:56:40;;;;;;;7.47;2.67;;;;;;;;;;3358959;42;20710;-54
2022/07/01 03:59:06;;;;;;;7.93;2.77;;;;;;;;;;3359453;42;20582;-55
2022/07/01 04:01:32;;;;;;;8.93;2.87;;;;;;;;;;3358957;42;20360;-59
2022/07/01 04:03:58;;;;;;;8.77;3.15;;;;;;;;;;3359635;42;20084;-56
2022/07/01 04:06:24;;;;;;;10.35;3.42;;;;;;;;;;3359133;42;20095;-57
2022/07/01 04:08:50;;;;;;;8.93;2.93;;;;;;;;;;3357858;42;20097;-60
2022/07/01 04:11:16;;;;;;;10.48;4.10;;;;;;;;;;3359937;42;20080;-59
2022/07/01 04:13:49;;;;;;;9.52;2.83;;;;;;;;;;3358540;42;20174;-54
2022/07/01 04:16:19;;;;;;;7.85;2.50;;;;;;;;;;3359166;42;20119;-57
2022/07/01 04:18:45;;;;;;;7.75;2.58;;;;;;;;;;3360387;42;20110;-56
2022/07/01 04:23:56;;;;;;;6.38;2.30;;;;;;;;;;3361060;42;20653;-54
2022/07/01 04:26:23;;;;;;;6.60;1.70;;;;;;;;;;3359029;42;20662;-57
2022/07/01 04:28:52;;;;;;;5.80;1.90;;;;;;;;;;3358527;42;20170;-54
2022/07/01 04:31:19;;;;;;;6.65;1.90;;;;;;;;;;3359497;42;20147;-56
2022/07/01 04:33:51;;;;;;;5.10;1.80;;;;;;;;;;3358235;42;20088;-56
2022/07/01 04:36:17;;;;;;;6.47;2.00;;;;;;;;;;3358086;42;20622;-55
2022/07/01 04:38:43;;;;;;;6.63;1.80;;;;;;;;;;3357789;42;20200;-55
2022/07/01 04:43:53;;;;;;;5.53;1.92;;;;;;;;;;3354197;42;20092;-59
2022/07/01 04:46:19;;;;;;;7.17;2.00;;;;;;;;;;3358083;42;20239;-56
2022/07/01 04:48:44;;;;;;;5.80;1.92;;;;;;;;;;3357223;42;20135;-56
2022/07/01 04:51:10;;;;;;;5.40;1.80;;;;;;;;;;3357520;42;20137;-57
2022/07/01 04:53:36;;;;;;;6.17;2.10;;;;;;;;;;3355570;42;20869;-54
2022/07/01 04:56:02;;;;;;;6.80;2.00;;;;;;;;;;3355571;42;20158;-57
2022/07/01 04:58:28;;;;;;;7.43;3.10;;;;;;;;;;3357625;42;20096;-58
2022/07/01 05:00:54;;;;;;;8.68;2.83;;;;;;;;;;3357546;42;20154;-52
2022/07/01 05:03:20;;;;;;;9.67;2.83;;;;;;;;;;3356931;42;20088;-55
2022/07/01 05:05:46;;;;;;;22.67;6.45;;;;;;;;;;3356947;42;20487;-56
2022/07/01 05:08:12;;;;;;;22.48;6.65;;;;;;;;;;3357185;42;20645;-56
2022/07/01 05:10:38;;;;;;;23.90;7.35;;;;;;;;;;3357367;42;20076;-56
2022/07/01 05:13:04;;;;;;;24.20;7.67;;;;;;;;;;3357721;42;20092;-56
2022/07/01 05:15:30;;;;;;;23.88;7.30;;;;;;;;;;3357324;42;20788;-57
2022/07/01 05:23:25;;;;;;;15.60;5.53;;;;;;;;;;3354250;42;20617;-57
2022/07/01 05:25:51;;;;;;;14.52;4.32;;;;;;;;;;3357306;42;20151;-57
2022/07/01 05:28:17;;;;;;;11.85;4.03;;;;;;;;;;3357338;42;20215;-57
2022/07/01 05:30:42;;;;;;;13.47;4.13;;;;;;;;;;3357270;42;20214;-58
2022/07/01 05:33:08;;;;;;;10.75;4.18;;;;;;;;;;3357107;42;20119;-57
2022/07/01 05:35:34;;;;;;;8.20;3.28;;;;;;;;;;3356943;42;20091;-58
2022/07/01 05:38:00;;;;;;;9.07;3.30;;;;;;;;;;3361854;42;20079;-54
2022/07/01 05:40:26;;;;;;;8.93;3.20;;;;;;;;;;3357043;42;20081;-57
2022/07/01 05:42:52;;;;;;;10.68;3.38;;;;;;;;;;3357333;42;20099;-58
2022/07/01 05:45:18;;;;;;;9.75;3.15;;;;;;;;;;3357071;42;20072;-58
2022/07/01 05:47:44;;;;;;;8.13;2.97;;;;;;;;;;3357122;42;20513;-58
2022/07/01 05:50:10;;;;;;;8.97;3.17;;;;;;;;;;3356817;42;20084;-56
2022/07/01 05:52:36;;;;;;;7.82;3.42;;;;;;;;;;3356379;42;20735;-57
2022/07/01 05:55:02;;;;;;;7.97;3.17;;;;;;;;;;3358134;42;20098;-58
2022/07/01 05:57:28;;;;;;;9.05;2.92;;;;;;;;;;3361789;42;20092;-57
2022/07/01 05:59:54;;;;;;;9.57;2.50;;;;;;;;;;3357914;42;20605;-58
2022/07/01 06:02:20;;;;;;;7.90;2.78;;;;;;;;;;3361814;42;20694;-59
2022/07/01 06:04:46;;;;;;;6.82;2.70;;;;;;;;;;3362424;42;20143;-59
2022/07/01 06:07:12;;;;;;;8.70;2.80;;;;;;;;;;3361991;42;20106;-58
2022/07/01 06:09:38;;;;;;;10.07;2.77;;;;;;;;;;3360210;42;20208;-56
2022/07/01 06:12:05;;;;;;;8.90;3.80;;;;;;;;;;3358876;42;20171;-61
2022/07/01 06:14:31;;;;;;;8.38;2.97;;;;;;;;;;3355706;42;20186;-61
2022/07/01 06:16:57;;;;;;;8.65;2.88;;;;;;;;;;3358641;42;20135;-61
2022/07/01 06:19:23;;;;;;;7.50;2.67;;;;;;;;;;3357210;42;20092;-59
2022/07/01 06:21:49;;;;;;;8.43;3.10;;;;;;;;;;3359213;42;20151;-62
2022/07/01 06:24:15;;;;;;;9.27;3.28;;;;;;;;;;3358801;42;20092;-60
2022/07/01 06:26:41;;;;;;;7.50;2.85;;;;;;;;;;3358373;42;20092;-60
2022/07/01 06:29:07;;;;;;;6.40;2.45;;;;;;;;;;3358188;42;20088;-60
2022/07/01 06:31:33;;;;;;;6.60;2.20;;;;;;;;;;3359928;42;20602;-61
2022/07/01 06:34:00;;;;;;;7.55;2.50;;;;;;;;;;3359497;42;20076;-59
2022/07/01 06:36:26;;;;;;;7.60;2.60;;;;;;;;;;3357117;42;20127;-59
2022/07/01 06:38:52;;;;;;;6.75;2.67;;;;;;;;;;3357141;42;20088;-61
2022/07/01 06:41:27;;;;;;;7.47;2.80;;;;;;;;;;3358491;42;20154;-59
2022/07/01 06:43:57;;;;;;;7.15;2.90;;;;;;;;;;3358253;42;20131;-62
2022/07/01 06:46:23;;;;;;;7.18;2.63;;;;;;;;;;3358237;42;20143;-61
2022/07/01 06:48:49;;;;;;;7.78;2.83;;;;;;;;;;3362791;42;20106;-61
2022/07/01 06:51:15;;;;;;;8.50;2.90;;;;;;;;;;3358588;42;20104;-62
2022/07/01 06:53:41;;;;;;;9.10;3.03;;;;;;;;;;3358535;42;20199;-63
2022/07/01 06:56:08;;;;;;;8.15;3.10;;;;;;;;;;3358412;42;20520;-59
2022/07/01 06:58:34;;;;;;;8.80;3.33;;;;;;;;;;3360184;42;20178;-61
2022/07/01 07:00:59;;;;;;;10.10;3.50;;;;;;;;;;3358033;42;20510;-61
2022/07/01 07:03:25;;;;;;;10.15;3.47;;;;;;;;;;3359517;42;20098;-61
2022/07/01 07:05:52;;;;;;;8.47;3.37;;;;;;;;;;3358703;42;20084;-60
2022/07/01 07:08:18;;;;;;;9.57;3.00;;;;;;;;;;3357476;42;20211;-61
2022/07/01 07:10:44;;;;;;;8.50;3.53;;;;;;;;;;3357392;42;20598;-60
2022/07/01 07:13:10;;;;;;;8.93;3.35;;;;;;;;;;3359462;42;21004;-59
2022/07/01 07:15:36;;;;;;;7.77;3.20;;;;;;;;;;3361321;42;20080;-61
2022/07/01 07:18:02;;;;;;;8.60;3.40;;;;;;;;;;3362007;42;20187;-62
2022/07/01 07:20:28;;;;;;;9.68;3.35;;;;;;;;;;3363790;42;20099;-61
2022/07/01 07:22:54;;;;;;;8.90;3.50;;;;;;;;;;3363061;42;20506;-61
2022/07/01 07:25:20;;;;;;;13.13;5.53;;;;;;;;;;3360079;42;20172;-60
2022/07/01 07:27:46;;;;;;;7.60;3.47;;;;;;;;;;3356781;42;20132;-62
2022/07/01 07:30:13;;;;;;;8.65;3.95;;;;;;;;;;3357920;42;20548;-61
2022/07/01 07:32:39;;;;;;;12.25;4.78;;;;;;;;;;3356264;42;20194;-58
2022/07/01 07:35:09;;;;;;;11.63;4.57;;;;;;;;;;3357972;42;20140;-65
2022/07/01 07:37:35;;;;;;;11.77;5.47;;;;;;;;;;3359776;42;20122;-59
2022/07/01 07:40:03;;;;;;;11.10;5.43;;;;;;;;;;3357302;42;20080;-64
2022/07/01 07:42:29;;;;;;;14.60;5.82;;;;;;;;;;3356371;42;20503;-65
2022/07/01 07:44:55;;;;;;;12.23;5.57;;;;;;;;;;3357996;42;20132;-61
2022/07/01 07:47:21;;;;;;;13.67;5.43;;;;;;;;;;3358803;42;20106;-56
2022/07/01 07:49:47;;;;;;;12.75;5.65;;;;;;;;;;3357723;42;20140;-59
2022/07/01 07:52:13;;;;;;;14.27;5.95;;;;;;;;;;3359289;42;20108;-62
2022/07/01 07:54:39;;;;;;;17.33;7.00;;;;;;;;;;3359700;42;20119;-62
2022/07/01 07:57:06;;;;;;;20.20;8.53;;;;;;;;;;3356573;42;20084;-58
2022/07/01 07:59:32;;;;;;;18.17;7.45;;;;;;;;;;3357405;42;20103;-59
2022/07/01 08:01:58;;;;;;;18.77;8.65;;;;;;;;;;3362221;42;20146;-62
2022/07/01 08:04:24;;;;;;;26.88;10.02;;;;;;;;;;3361214;42;20076;-62
2022/07/01 08:06:50;;;;;;;33.07;12.40;;;;;;;;;;3358412;42;20099;-60
2022/07/01 08:09:16;;;;;;;38.28;13.13;;;;;;;;;;3356216;42;20139;-62
2022/07/01 08:11:42;;;;;;;38.13;13.77;;;;;;;;;;3357997;42;20186;-61
2022/07/01 08:14:08;;;;;;;29.60;10.73;;;;;;;;;;3356992;42;20084;-62
2022/07/01 08:16:34;;;;;;;15.15;6.90;;;;;;;;;;3356712;42;20115;-59
2022/07/01 08:19:00;;;;;;;14.35;6.40;;;;;;;;;;3348582;42;20088;-62
2022/07/01 08:21:25;;;;;;;12.18;6.38;;;;;;;;;;3360755;42;20135;-60
2022/07/01 08:23:51;;;;;;;13.83;6.33;;;;;;;;;;3357504;42;20297;-58
2022/07/01 08:26:17;;;;;;;13.57;5.65;;;;;;;;;;3357605;42;20479;-62
2022/07/01 08:28:43;;;;;;;22.92;10.43;;;;;;;;;;3355650;42;20100;-61
2022/07/01 08:31:09;;;;;;;16.20;7.03;;;;;;;;;;3355557;42;20129;-61
2022/07/01 08:33:37;;;;;;;17.03;7.20;;;;;;;;;;3357254;42;20501;-62
2022/07/01 08:36:04;;;;;;;17.48;8.00;;;;;;;;;;3356164;42;20136;-59
2022/07/01 08:38:30;;;;;;;31.33;12.77;;;;;;;;;;3356399;42;20123;-62
2022/07/01 08:40:56;;;;;;;26.00;11.90;;;;;;;;;;3356322;42;20107;-63
2022/07/01 08:43:22;;;;;;;13.85;6.63;;;;;;;;;;3356169;42;20536;-64
2022/07/01 08:45:48;;;;;;;13.80;6.43;;;;;;;;;;3356961;42;20141;-62
2022/07/01 08:48:14;;;;;;;14.55;6.55;;;;;;;;;;3355888;42;20594;-61
2022/07/01 08:50:40;;;;;;;13.77;6.03;;;;;;;;;;3355886;42;20169;-59
2022/07/01 08:53:07;;;;;;;12.75;5.90;;;;;;;;;;3357155;42;20092;-60
2022/07/01 08:56:40;;;;;;;11.63;5.80;;;;;;;;;;3355597;42;20096;-59
2022/07/01 08:58:21;;;;;;;13.03;5.90;;;;;;;;;;3357068;42;20107;-61
2022/07/01 09:00:47;;;;;;;13.10;6.60;;;;;;;;;;3347769;42;20302;-59
2022/07/01 09:03:13;;;;;;;13.25;6.07;;;;;;;;;;3357124;42;20568;-61
2022/07/01 09:05:39;;;;;;;15.23;7.05;;;;;;;;;;3355932;42;20561;-61
2022/07/01 09:08:05;;;;;;;15.57;7.37;;;;;;;;;;3355212;42;20084;-58
2022/07/01 09:10:36;;;;;;;12.00;6.05;;;;;;;;;;3356676;42;20221;-61
2022/07/01 09:13:08;;;;;;;14.02;7.07;;;;;;;;;;3353092;42;20120;-60
2022/07/01 09:15:35;;;;;;;11.55;6.22;;;;;;;;;;3347824;42;20649;-60
2022/07/01 09:18:20;;;;;;;12.68;6.03;;;;;;;;;;3347880;42;20084;-59
2022/07/01 09:20:49;;;;;;;13.23;5.50;;;;;;;;;;3355615;42;20088;-60
2022/07/01 09:23:17;;;;;;;11.02;5.97;;;;;;;;;;3354479;42;20613;-60
2022/07/01 09:25:43;;;;;;;11.07;5.28;;;;;;;;;;3355244;42;20573;-60
2022/07/01 09:28:23;;;;;;;10.32;5.35;;;;;;;;;;3356601;42;20080;-60
2022/07/01 09:30:54;;;;;;;10.97;5.30;;;;;;;;;;3357105;42;20562;-59
2022/07/01 09:33:21;;;;;;;9.65;5.32;;;;;;;;;;3357295;42;20087;-60
2022/07/01 09:35:50;;;;;;;9.43;4.80;;;;;;;;;;3356239;42;20103;-59
2022/07/01 09:38:20;;;;;;;12.80;4.93;;;;;;;;;;3362388;42;20091;-59
2022/07/01 09:40:58;;;;;;;11.07;5.68;;;;;;;;;;3359674;42;20084;-59
2022/07/01 09:43:27;;;;;;;11.57;5.43;;;;;;;;;;3360716;42;20163;-61
2022/07/01 09:45:55;;;;;;;12.82;5.47;;;;;;;;;;3356846;42;20096;-60
2022/07/01 09:48:22;;;;;;;10.75;5.25;;;;;;;;;;3355524;42;20196;-62
2022/07/01 09:50:48;;;;;;;11.27;5.15;;;;;;;;;;3355827;42;20179;-58
2022/07/01 09:53:14;;;;;;;10.77;5.25;;;;;;;;;;3355790;42;20096;-59
2022/07/01 09:55:40;;;;;;;10.33;4.83;;;;;;;;;;3356963;42;20699;-61
2022/07/01 09:58:06;;;;;;;11.82;4.90;;;;;;;;;;3357279;42;20613;-59
2022/07/01 10:00:32;;;;;;;10.60;5.32;;;;;;;;;;3355876;42;20159;-61
2022/07/01 10:03:00;;;;;;;9.70;4.95;;;;;;;;;;3355728;42;20080;-59
2022/07/01 10:05:26;;;;;;;12.80;5.60;;;;;;;;;;3357231;42;20092;-58
2022/07/01 10:08:15;;;;;;;12.23;5.17;;;;;;;;;;3356060;42;20211;-62
2022/07/01 10:10:43;;;;;;;12.27;4.85;;;;;;;;;;3355963;42;20174;-59
2022/07/01 10:13:10;;;;;;;15.93;5.75;;;;;;;;;;3358119;42;20195;-56
2022/07/01 10:15:36;;;;;;;13.55;6.30;;;;;;;;;;3355580;42;20088;-58
2022/07/01 10:18:02;;;;;;;10.20;5.40;;;;;;;;;;3353437;42;20178;-62
2022/07/01 10:20:29;;;;;;;13.73;5.50;;;;;;;;;;3355708;42;20139;-60
2022/07/01 10:23:07;;;;;;;11.35;4.95;;;;;;;;;;3356561;42;20159;-61
2022/07/01 10:25:49;;;;;;;11.77;5.53;;;;;;;;;;3347007;42;20173;-62
2022/07/01 10:28:22;;;;;;;11.82;4.75;;;;;;;;;;3355187;42;20190;-60
2022/07/01 10:30:49;;;;;;;10.60;4.05;;;;;;;;;;3357853;42;20092;-60
2022/07/01 10:33:49;;;;;;;10.80;3.83;;;;;;;;;;3357410;42;20123;-60
2022/07/01 10:36:22;;;;;;;8.30;3.03;;;;;;;;;;3353681;42;20512;-60
2022/07/01 10:39:03;;;;;;;10.60;3.35;;;;;;;;;;3355411;42;20542;-58
2022/07/01 10:41:32;;;;;;;9.82;3.05;;;;;;;;;;3354316;42;20103;-60
2022/07/01 10:44:02;;;;;;;8.60;3.25;;;;;;;;;;3356874;42;20573;-60
2022/07/01 10:46:47;;;;;;;8.67;2.90;;;;;;;;;;3348592;42;20629;-59
2022/07/01 10:49:18;;;;;;;7.63;2.78;;;;;;;;;;3357458;42;20163;-61
2022/07/01 10:51:52;;;;;;;8.07;3.00;;;;;;;;;;3357809;42;20084;-60
2022/07/01 10:54:36;;;;;;;6.13;2.42;;;;;;;;;;3352450;42;20423;-61
2022/07/01 10:57:18;;;;;;;8.20;3.33;;;;;;;;;;3359497;42;20171;-61
2022/07/01 11:00:00;;;;;;;9.63;4.37;;;;;;;;;;3359520;42;20132;-60
2022/07/01 11:02:35;;;;;;;8.57;4.30;;;;;;;;;;3358717;42;20093;-60
2022/07/01 11:05:01;;;;;;;10.15;4.63;;;;;;;;;;3354811;42;20553;-62
2022/07/01 11:07:29;;;;;;;9.80;4.75;;;;;;;;;;3358305;42;20625;-60
2022/07/01 11:09:55;;;;;;;11.30;4.60;;;;;;;;;;3351977;42;20158;-58
2022/07/01 11:12:24;;;;;;;9.27;4.67;;;;;;;;;;3356665;42;20196;-61
2022/07/01 11:14:51;;;;;;;9.45;5.10;;;;;;;;;;3358425;42;20147;-61
2022/07/01 11:17:17;;;;;;;11.48;4.82;;;;;;;;;;3358558;42;20084;-60
2022/07/01 11:19:56;;;;;;;11.27;5.15;;;;;;;;;;3358553;42;20088;-60
2022/07/01 11:22:23;;;;;;;9.07;5.07;;;;;;;;;;3357026;42;20088;-62
2022/07/01 11:25:10;;;;;;;11.17;4.40;;;;;;;;;;3358370;42;20560;-60
2022/07/01 11:27:36;;;;;;;8.95;4.60;;;;;;;;;;3356867;42;20080;-62
2022/07/01 11:30:09;;;;;;;13.80;4.47;;;;;;;;;;3356808;42;20202;-60
2022/07/01 11:32:36;;;;;;;7.68;3.83;;;;;;;;;;3350754;42;20088;-61
2022/07/01 11:35:03;;;;;;;7.88;3.72;;;;;;;;;;3359911;42;20569;-60
2022/07/01 11:40:15;;;;;;;10.20;3.83;;;;;;;;;;3358307;42;20147;-60
2022/07/01 11:42:41;;;;;;;8.23;3.65;;;;;;;;;;3352509;42;20088;-60
2022/07/01 11:45:07;;;;;;;7.93;4.10;;;;;;;;;;3358557;42;20165;-61
2022/07/01 11:47:33;;;;;;;10.27;4.78;;;;;;;;;;3357889;42;20092;-59
2022/07/01 11:49:59;;;;;;;10.90;4.40;;;;;;;;;;3358252;42;20594;-60
2022/07/01 11:52:26;;;;;;;8.73;4.38;;;;;;;;;;3357978;42;20096;-62
2022/07/01 11:54:57;;;;;;;8.13;3.83;;;;;;;;;;3356523;42;20207;-59
2022/07/01 11:57:24;;;;;;;9.43;4.00;;;;;;;;;;3349702;42;20182;-60
2022/07/01 11:59:51;;;;;;;8.90;3.90;;;;;;;;;;3356798;42;20100;-59
2022/07/01 12:02:18;;;;;;;10.50;4.30;;;;;;;;;;3357950;42;20208;-62
2022/07/01 12:04:45;;;;;;;14.25;7.10;;;;;;;;;;3358019;42;20163;-59
2022/07/01 12:07:11;;;;;;;9.85;4.97;;;;;;;;;;3355114;42;20096;-62
2022/07/01 12:09:37;;;;;;;13.25;5.97;;;;;;;;;;3356550;42;20100;-60
2022/07/01 12:12:04;;;;;;;14.02;5.90;;;;;;;;;;3356459;42;20096;-61
2022/07/01 12:14:32;;;;;;;12.83;5.40;;;;;;;;;;3357421;42;20088;-59
2022/07/01 12:17:05;;;;;;;8.90;4.07;;;;;;;;;;3357462;42;20092;-62
2022/07/01 12:19:38;;;;;;;10.15;4.70;;;;;;;;;;3357784;42;20088;-60
2022/07/01 12:22:23;;;;;;;10.88;4.50;;;;;;;;;;3358674;42;20088;-62
2022/07/01 12:24:49;;;;;;;10.32;4.72;;;;;;;;;;3356435;42;20107;-61
2022/07/01 12:27:15;;;;;;;16.17;5.33;;;;;;;;;;3357570;42;20166;-60
2022/07/01 12:29:50;;;;;;;12.57;5.07;;;;;;;;;;3355934;42;20514;-61
2022/07/01 12:32:18;;;;;;;11.35;4.20;;;;;;;;;;3359849;42;20156;-59
2022/07/01 12:34:48;;;;;;;12.38;4.80;;;;;;;;;;3360844;42;20609;-60
2022/07/01 12:37:25;;;;;;;9.93;4.85;;;;;;;;;;3359505;42;20084;-59
2022/07/01 12:39:52;;;;;;;9.30;4.80;;;;;;;;;;3358868;42;20096;-59
2022/07/01 12:42:25;;;;;;;8.23;3.70;;;;;;;;;;3359565;42;20499;-57
2022/07/01 12:44:51;;;;;;;8.02;3.40;;;;;;;;;;3356783;42;20132;-61
2022/07/01 12:47:37;;;;;;;6.50;2.88;;;;;;;;;;3356364;42;20135;-62
2022/07/01 12:50:10;;;;;;;7.07;2.90;;;;;;;;;;3357329;42;20574;-61
2022/07/01 12:52:36;;;;;;;6.53;3.00;;;;;;;;;;3344860;42;20233;-60
2022/07/01 12:55:20;;;;;;;9.13;2.75;;;;;;;;;;3356183;42;20094;-61
2022/07/01 12:57:54;;;;;;;7.95;3.10;;;;;;;;;;3356270;42;20107;-60
2022/07/01 13:00:21;;;;;;;7.55;3.00;;;;;;;;;;3357143;42;20130;-61
2022/07/01 13:02:49;;;;;;;8.52;3.03;;;;;;;;;;3356000;42;20169;-63
2022/07/01 13:05:15;;;;;;;8.60;3.27;;;;;;;;;;3355958;42;20107;-61
2022/07/01 13:07:41;;;;;;;9.63;3.60;;;;;;;;;;3357093;42;20211;-60
2022/07/01 13:10:07;;;;;;;8.70;3.55;;;;;;;;;;3357337;42;20148;-60
2022/07/01 13:12:33;;;;;;;8.25;3.67;;;;;;;;;;3357506;42;20118;-63
2022/07/01 13:14:59;;;;;;;11.50;3.80;;;;;;;;;;3357107;42;20506;-59
2022/07/01 13:17:25;;;;;;;10.93;3.92;;;;;;;;;;3357268;42;20088;-60
2022/07/01 13:19:51;;;;;;;10.20;5.10;;;;;;;;;;3358480;42;20080;-61
2022/07/01 13:22:17;;;;;;;8.07;3.53;;;;;;;;;;3357126;42;20088;-58
2022/07/01 13:24:43;;;;;;;9.03;3.47;;;;;;;;;;3361187;42;20146;-63
2022/07/01 13:27:09;;;;;;;9.90;3.53;;;;;;;;;;3360370;42;20111;-57
2022/07/01 13:29:35;;;;;;;11.75;3.45;;;;;;;;;;3358443;42;20104;-59
2022/07/01 13:32:01;;;;;;;16.23;3.78;;;;;;;;;;3360546;42;20165;-60
2022/07/01 13:34:27;;;;;;;14.45;3.50;;;;;;;;;;3359357;42;20088;-60
2022/07/01 13:36:53;;;;;;;8.40;3.30;;;;;;;;;;3361369;42;20111;-60
2022/07/01 13:39:19;;;;;;;9.75;3.42;;;;;;;;;;3360129;42;20165;-56
2022/07/01 13:41:46;;;;;;;10.38;3.40;;;;;;;;;;3359598;42;20170;-59
2022/07/01 13:44:12;;;;;;;9.68;3.42;;;;;;;;;;3359730;42;20696;-60
2022/07/01 13:46:38;;;;;;;10.93;3.40;;;;;;;;;;3359312;42;20214;-63
2022/07/01 13:49:04;;;;;;;11.20;3.05;;;;;;;;;;3361136;42;20101;-62
2022/07/01 13:51:30;;;;;;;10.65;3.40;;;;;;;;;;3358668;42;20750;-62
2022/07/01 13:53:59;;;;;;;10.98;4.03;;;;;;;;;;3360488;42;20092;-59
2022/07/01 13:56:25;;;;;;;12.98;3.90;;;;;;;;;;3361003;42;20110;-59
2022/07/01 13:58:52;;;;;;;12.30;4.20;;;;;;;;;;3358992;42;20152;-61
2022/07/01 14:01:18;;;;;;;13.95;4.00;;;;;;;;;;3360106;42;20096;-60
2022/07/01 14:03:45;;;;;;;18.50;6.80;;;;;;;;;;3361241;42;20096;-62
2022/07/01 14:06:11;;;;;;;18.85;6.45;;;;;;;;;;3360537;42;20170;-61
2022/07/01 14:08:37;;;;;;;20.58;6.88;;;;;;;;;;3361227;42;20157;-61
2022/07/01 14:11:03;;;;;;;22.87;7.80;;;;;;;;;;3360767;42;20103;-60
2022/07/01 14:13:29;;;;;;;20.48;8.00;;;;;;;;;;3360559;42;20095;-60
2022/07/01 14:15:55;;;;;;;24.27;7.57;;;;;;;;;;3360772;42;20092;-62
2022/07/01 14:18:21;;;;;;;18.20;6.78;;;;;;;;;;3361016;42;20570;-60
2022/07/01 14:20:47;;;;;;;16.60;6.20;;;;;;;;;;3360977;42;20589;-60
2022/07/01 14:23:13;;;;;;;15.73;5.93;;;;;;;;;;3355890;42;20152;-59
2022/07/01 14:25:40;;;;;;;10.63;4.47;;;;;;;;;;3356604;42;20088;-60
2022/07/01 14:28:06;;;;;;;9.95;3.78;;;;;;;;;;3358996;42;20103;-59
2022/07/01 14:30:33;;;;;;;10.40;3.67;;;;;;;;;;3357114;42;20582;-60
2022/07/01 14:33:01;;;;;;;7.43;3.40;;;;;;;;;;3358843;42;20096;-60
2022/07/01 14:35:27;;;;;;;10.25;4.20;;;;;;;;;;3357577;42;20906;-62
2022/07/01 14:37:53;;;;;;;8.52;3.30;;;;;;;;;;3358246;42;20565;-60
2022/07/01 14:40:19;;;;;;;9.30;3.30;;;;;;;;;;3357263;42;20107;-61
2022/07/01 14:42:48;;;;;;;11.33;3.80;;;;;;;;;;3358715;42;20104;-61
2022/07/01 14:45:14;;;;;;;9.32;4.20;;;;;;;;;;3358619;42;20114;-61
2022/07/01 14:47:41;;;;;;;10.82;3.95;;;;;;;;;;3358202;42;20514;-62
2022/07/01 14:50:07;;;;;;;11.52;3.70;;;;;;;;;;3356983;42;20181;-60
2022/07/01 14:52:33;;;;;;;10.40;3.72;;;;;;;;;;3358026;42;20530;-58
2022/07/01 14:54:59;;;;;;;8.13;3.60;;;;;;;;;;3358332;42;20799;-58